Time,TemperatureF,DewpointF,PressureIn,WindDirection,WindDirectionDegrees,WindSpeedMPH,WindSpeedGustMPH,Humidity,HourlyPrecipIn,Conditions,Clouds,dailyrainin,SolarRadiationWatts/m^2,SoftwareType,DateUTC
2013-01-25 00:04:00,3.5,-1.6,29.95,South,183,4.6,4.6,79,0.00,-RA,,0.00,0.0,WeatherDisplay:10.37,2013-01-25 06:04:00,
2013-01-25 00:09:00,3.5,-1.6,29.95,South,184,6.9,6.9,79,0.00,-RA,,0.00,0.0,WeatherDisplay:10.37,2013-01-25 06:09:00,
2013-01-25 00:14:00,3.5,-1.6,29.95,South,172,3.5,3.5,79,0.00,-RA,,0.00,0.0,WeatherDisplay:10.37,2013-01-25 06:14:00,
2013-01-25 00:19:00,3.6,-1.5,29.94,South,180,5.0,5.0,79,0.00,-RA,,0.00,0.0,WeatherDisplay:10.37,2013-01-25 06:19:00,
2013-01-25 00:24:00,3.6,-1.5,29.93,South,176,4.6,4.6,79,0.00,-RA,,0.00,0.0,WeatherDisplay:10.37,2013-01-25 06:24:00,
2013-01-25 00:29:00,3.7,-1.4,29.93,South,182,3.5,3.5,79,0.00,-RA,,0.00,0.0,WeatherDisplay:10.37,2013-01-25 06:29:00,
2013-01-25 00:34:00,3.7,-1.4,29.92,South,173,4.6,4.6,79,0.00,-RA,,0.00,0.0,WeatherDisplay:10.37,2013-01-25 06:34:00,
2013-01-25 00:39:00,3.8,-1.0,29.92,South,178,3.5,3.5,80,0.00,-RA,,0.00,0.0,WeatherDisplay:10.37,2013-01-25 06:39:00,
2013-01-25 00:44:00,3.8,-1.0,29.92,SSE,167,5.8,5.8,80,0.00,-RA,,0.00,0.0,WeatherDisplay:10.37,2013-01-25 06:44:00,
2013-01-25 00:49:00,3.9,-0.9,29.91,South,190,4.0,4.0,80,0.00,-RA,,0.00,0.0,WeatherDisplay:10.37,2013-01-25 06:49:00,
2013-01-25 00:54:00,4.0,-0.8,29.91,South,180,3.5,3.5,80,0.00,-RA,,0.00,0.0,WeatherDisplay:10.37,2013-01-25 06:54:00,
2013-01-25 00:59:00,4.0,-0.8,29.91,South,185,6.9,6.9,80,0.00,-RA,,0.00,0.0,WeatherDisplay:10.37,2013-01-25 06:59:00,
2013-01-25 01:04:00,4.1,-0.7,29.90,South,176,5.8,5.8,80,0.00,-RA,,0.00,0.0,WeatherDisplay:10.37,2013-01-25 07:04:00,
2013-01-25 01:09:00,4.1,-0.7,29.90,South,172,3.5,3.5,80,0.00,-RA,,0.00,0.0,WeatherDisplay:10.37,2013-01-25 07:09:00,
2013-01-25 01:14:00,4.2,-0.6,29.89,South,181,4.0,4.0,80,0.00,-RA,,0.00,0.0,WeatherDisplay:10.37,2013-01-25 07:14:00,
2013-01-25 01:19:00,4.2,-0.6,29.89,South,186,6.9,6.9,80,0.00,-RA,,0.00,0.0,WeatherDisplay:10.37,2013-01-25 07:19:00,
2013-01-25 01:24:00,4.3,-0.5,29.89,South,179,3.5,3.5,80,0.00,-RA,,0.00,0.0,WeatherDisplay:10.37,2013-01-25 07:24:00,
2013-01-25 01:29:00,4.3,-0.5,29.88,South,173,3.5,3.5,80,0.00,-RA,,0.00,0.0,WeatherDisplay:10.37,2013-01-25 07:29:00,
2013-01-25 01:34:00,4.4,-0.4,29.88,South,185,6.9,6.9,80,0.00,-RA,,0.00,0.0,WeatherDisplay:10.37,2013-01-25 07:34:00,
2013-01-25 01:39:00,4.4,-0.4,29.87,South,173,0.0,0.0,80,0.00,-RA,,0.00,0.0,WeatherDisplay:10.37,2013-01-25 07:39:00,
2013-01-25 01:44:00,4.5,0.0,29.87,South,175,3.5,3.5,81,0.00,-RA,,0.00,0.0,WeatherDisplay:10.37,2013-01-25 07:44:00,
2013-01-25 01:49:00,4.5,0.0,29.86,SSE,167,3.5,3.5,81,0.00,-RA,,0.00,0.0,WeatherDisplay:10.37,2013-01-25 07:49:00,
2013-01-25 01:54:00,4.6,0.1,29.86,South,179,3.5,3.5,81,0.00,-RA,,0.00,0.0,WeatherDisplay:10.37,2013-01-25 07:54:00,
2013-01-25 01:59:00,4.6,0.1,29.86,South,179,4.6,4.6,81,0.00,-RA,,0.00,0.0,WeatherDisplay:10.37,2013-01-25 07:59:00,
2013-01-25 02:04:00,4.7,0.2,29.86,South,180,4.6,4.6,81,0.00,-RA,,0.00,0.0,WeatherDisplay:10.37,2013-01-25 08:04:00,
2013-01-25 02:09:00,4.7,0.2,29.86,South,178,4.6,4.6,81,0.00,-RA,,0.00,0.0,WeatherDisplay:10.37,2013-01-25 08:09:00,
2013-01-25 02:14:00,4.8,0.2,29.86,South,178,3.5,3.5,81,0.00,-RA,,0.00,0.0,WeatherDisplay:10.37,2013-01-25 08:14:00,
2013-01-25 02:19:00,4.9,0.3,29.85,South,177,3.5,3.5,81,0.00,-RA,,0.00,0.0,WeatherDisplay:10.37,2013-01-25 08:19:00,
2013-01-25 02:24:00,4.9,0.3,29.85,South,176,3.5,3.5,81,0.00,-RA,,0.00,0.0,WeatherDisplay:10.37,2013-01-25 08:24:00,
2013-01-25 02:29:00,4.9,0.3,29.84,South,173,3.5,3.5,81,0.00,-RA,,0.00,0.0,WeatherDisplay:10.37,2013-01-25 08:29:00,
2013-01-25 02:34:00,5.0,0.7,29.84,South,172,3.5,3.5,82,0.00,-RA,,0.00,0.0,WeatherDisplay:10.37,2013-01-25 08:34:00,
2013-01-25 02:39:00,5.0,0.7,29.84,South,173,3.5,3.5,82,0.00,-RA,,0.00,0.0,WeatherDisplay:10.37,2013-01-25 08:39:00,
2013-01-25 02:45:00,5.1,0.8,29.84,South,173,2.3,2.3,82,0.00,-RA,,0.00,0.0,WeatherDisplay:10.37,2013-01-25 08:45:00,
2013-01-25 02:50:00,5.1,0.8,29.84,South,184,3.5,3.5,82,0.00,-RA,,0.00,0.0,WeatherDisplay:10.37,2013-01-25 08:50:00,
2013-01-25 02:55:00,5.2,0.9,29.83,South,185,2.0,0.0,82,0.00,-RA,,0.00,0.0,WeatherDisplay:10.37,2013-01-25 08:55:00,
2013-01-25 03:00:00,5.2,0.9,29.83,South,182,3.5,3.5,82,0.00,-RA,,0.00,0.0,WeatherDisplay:10.37,2013-01-25 09:00:00,
2013-01-25 03:05:00,5.3,1.3,29.83,South,182,3.5,3.5,83,0.00,-RA,,0.00,0.0,WeatherDisplay:10.37,2013-01-25 09:05:00,
2013-01-25 03:10:00,5.4,1.4,29.83,South,181,0.0,4.0,83,0.00,-RA,,0.00,0.0,WeatherDisplay:10.37,2013-01-25 09:10:00,
2013-01-25 03:15:00,5.4,1.4,29.83,South,179,3.5,3.5,83,0.00,-RA,,0.00,0.0,WeatherDisplay:10.37,2013-01-25 09:15:00,
2013-01-25 03:20:00,5.5,1.5,29.82,South,178,1.1,1.1,83,0.00,-RA,,0.00,0.0,WeatherDisplay:10.37,2013-01-25 09:20:00,
2013-01-25 03:25:00,5.6,1.6,29.82,South,184,4.6,4.6,83,0.00,-RA,,0.00,0.0,WeatherDisplay:10.37,2013-01-25 09:25:00,
2013-01-25 03:30:00,5.7,1.7,29.82,South,184,3.5,3.5,83,0.00,-RA,,0.00,0.0,WeatherDisplay:10.37,2013-01-25 09:30:00,
2013-01-25 03:35:00,5.8,1.8,29.82,South,184,3.5,3.5,83,0.00,-RA,,0.00,0.0,WeatherDisplay:10.37,2013-01-25 09:35:00,
2013-01-25 03:40:00,5.8,1.8,29.81,South,184,1.0,5.0,83,0.00,-RA,,0.00,0.0,WeatherDisplay:10.37,2013-01-25 09:40:00,
2013-01-25 03:45:00,5.9,1.8,29.81,South,184,4.0,4.0,83,0.00,-RA,,0.00,0.0,WeatherDisplay:10.37,2013-01-25 09:45:00,
2013-01-25 03:50:00,6.0,1.9,29.81,South,190,3.5,3.5,83,0.00,-RA,,0.00,0.0,WeatherDisplay:10.37,2013-01-25 09:50:00,
2013-01-25 03:55:00,6.1,2.0,29.81,South,190,2.3,2.3,83,0.00,-RA,,0.00,0.0,WeatherDisplay:10.37,2013-01-25 09:55:00,
2013-01-25 04:00:00,6.2,2.1,29.81,South,189,4.0,4.0,83,0.00,-RA,,0.00,0.0,WeatherDisplay:10.37,2013-01-25 10:00:00,
2013-01-25 04:05:00,6.3,2.2,29.81,South,189,3.5,3.5,83,0.00,-RA,,0.00,0.0,WeatherDisplay:10.37,2013-01-25 10:05:00,
2013-01-25 04:10:00,6.4,2.3,29.80,South,188,3.5,3.5,83,0.00,-RA,,0.00,0.0,WeatherDisplay:10.37,2013-01-25 10:10:00,
2013-01-25 04:15:00,6.5,2.4,29.79,South,188,1.1,0.0,83,0.00,-RA,,0.00,0.0,WeatherDisplay:10.37,2013-01-25 10:15:00,
2013-01-25 04:20:00,6.5,2.4,29.79,South,188,3.5,3.5,83,0.00,-RA,,0.00,0.0,WeatherDisplay:10.37,2013-01-25 10:20:00,
2013-01-25 04:25:00,6.6,2.5,29.79,South,187,0.0,0.0,83,0.00,-RA,,0.00,0.0,WeatherDisplay:10.37,2013-01-25 10:25:00,
2013-01-25 04:30:00,6.7,2.6,29.79,South,188,4.6,4.6,83,0.00,-RA,,0.00,0.0,WeatherDisplay:10.37,2013-01-25 10:30:00,
2013-01-25 04:35:00,6.7,2.6,29.79,South,188,1.1,1.1,83,0.00,-RA,,0.00,0.0,WeatherDisplay:10.37,2013-01-25 10:35:00,
2013-01-25 04:40:00,6.8,3.0,29.78,South,187,3.5,3.5,84,0.00,-RA,,0.00,0.0,WeatherDisplay:10.37,2013-01-25 10:40:00,
2013-01-25 04:45:00,6.8,3.0,29.79,South,188,0.0,0.0,84,0.00,-RA,,0.00,0.0,WeatherDisplay:10.37,2013-01-25 10:45:00,
2013-01-25 04:50:00,6.9,3.1,29.78,South,188,2.3,2.3,84,0.00,-RA,,0.00,0.0,WeatherDisplay:10.37,2013-01-25 10:50:00,
2013-01-25 04:55:00,6.9,3.1,29.78,South,187,0.0,0.0,84,0.00,-RA,,0.00,0.0,WeatherDisplay:10.37,2013-01-25 10:55:00,
2013-01-25 05:00:00,6.9,3.1,29.79,South,188,0.0,0.0,84,0.00,-RA,,0.00,0.0,WeatherDisplay:10.37,2013-01-25 11:00:00,
2013-01-25 05:05:00,6.9,3.1,29.78,South,188,0.0,0.0,84,0.00,-RA,,0.00,0.0,WeatherDisplay:10.37,2013-01-25 11:05:00,
2013-01-25 05:10:00,7.0,3.2,29.78,South,188,0.0,0.0,84,0.00,-RA,,0.00,0.0,WeatherDisplay:10.37,2013-01-25 11:10:00,
2013-01-25 05:15:00,7.0,3.2,29.78,South,188,0.0,0.0,84,0.00,-RA,,0.00,0.0,WeatherDisplay:10.37,2013-01-25 11:15:00,
2013-01-25 05:20:00,7.1,3.3,29.78,South,188,0.0,0.0,84,0.00,-RA,,0.00,0.0,WeatherDisplay:10.37,2013-01-25 11:20:00,
2013-01-25 05:25:00,7.1,3.3,29.78,South,188,0.0,0.0,84,0.00,-RA,,0.00,0.0,WeatherDisplay:10.37,2013-01-25 11:25:00,
2013-01-25 05:30:00,7.1,3.3,29.78,South,188,0.0,0.0,84,0.00,-RA,,0.00,0.0,WeatherDisplay:10.37,2013-01-25 11:30:00,
2013-01-25 05:35:00,7.1,3.3,29.78,South,187,0.0,0.0,84,0.00,-RA,,0.00,0.0,WeatherDisplay:10.37,2013-01-25 11:35:00,
2013-01-25 05:40:00,7.2,3.4,29.78,South,188,3.5,3.5,84,0.00,-RA,,0.00,0.0,WeatherDisplay:10.37,2013-01-25 11:40:00,
2013-01-25 05:45:00,7.3,3.5,29.78,South,188,2.3,2.3,84,0.00,-RA,,0.00,0.0,WeatherDisplay:10.37,2013-01-25 11:45:00,
2013-01-25 05:50:00,7.3,3.5,29.78,West,271,5.0,5.0,84,0.00,-RA,,0.00,0.0,WeatherDisplay:10.37,2013-01-25 11:50:00,
2013-01-25 05:55:00,7.4,3.8,29.78,West,265,3.5,3.5,85,0.00,-RA,,0.00,0.0,WeatherDisplay:10.37,2013-01-25 11:55:00,
2013-01-25 06:00:00,7.6,4.0,29.78,West,271,3.5,3.5,85,0.00,-RA,,0.00,0.0,WeatherDisplay:10.37,2013-01-25 12:00:00,
2013-01-25 06:05:00,7.8,4.2,29.79,WSW,258,5.0,5.0,85,0.00,-RA,,0.00,0.0,WeatherDisplay:10.37,2013-01-25 12:05:00,
2013-01-25 06:10:00,7.9,4.3,29.79,West,264,3.5,3.5,85,0.00,-RA,,0.00,0.0,WeatherDisplay:10.37,2013-01-25 12:10:00,
2013-01-25 06:15:00,8.1,4.5,29.79,WSW,256,4.6,0.0,85,0.00,-RA,,0.00,0.0,WeatherDisplay:10.37,2013-01-25 12:15:00,
2013-01-25 06:20:00,8.2,4.6,29.79,WSW,254,8.0,8.0,85,0.00,-RA,,0.00,0.0,WeatherDisplay:10.37,2013-01-25 12:20:00,
2013-01-25 06:25:00,8.3,4.7,29.79,West,262,6.9,6.9,85,0.00,-RA,,0.00,0.0,WeatherDisplay:10.37,2013-01-25 12:25:00,
2013-01-25 06:31:00,8.3,4.7,29.79,West,278,3.5,3.5,85,0.00,-RA,,0.00,0.0,WeatherDisplay:10.37,2013-01-25 12:31:00,
2013-01-25 06:36:00,8.3,4.7,29.79,WSW,256,3.5,3.5,85,0.00,-RA,,0.00,0.0,WeatherDisplay:10.37,2013-01-25 12:36:00,
2013-01-25 06:41:00,8.3,4.7,29.79,West,271,3.5,3.5,85,0.00,-RA,,0.00,0.0,WeatherDisplay:10.37,2013-01-25 12:41:00,
2013-01-25 06:46:00,8.3,4.7,29.79,West,267,6.0,6.0,85,0.00,-RA,,0.00,0.0,WeatherDisplay:10.37,2013-01-25 12:46:00,
2013-01-25 06:51:00,8.3,4.5,29.80,West,273,9.2,9.2,84,0.00,-RA,,0.00,0.0,WeatherDisplay:10.37,2013-01-25 12:51:00,
2013-01-25 06:56:00,8.3,4.5,29.80,West,268,5.8,5.8,84,0.00,-RA,,0.00,0.0,WeatherDisplay:10.37,2013-01-25 12:56:00,
2013-01-25 07:01:00,8.2,4.4,29.80,West,267,4.6,4.6,84,0.00,-RA,,0.00,0.0,WeatherDisplay:10.37,2013-01-25 13:01:00,
2013-01-25 07:06:00,8.2,4.4,29.81,NW,309,5.8,5.8,84,0.00,-RA,,0.00,0.0,WeatherDisplay:10.37,2013-01-25 13:06:00,
2013-01-25 07:11:00,8.2,4.4,29.82,NW,304,3.5,3.5,84,0.00,-RA,,0.00,0.0,WeatherDisplay:10.37,2013-01-25 13:11:00,
2013-01-25 07:16:00,8.1,4.3,29.82,West,281,3.5,3.5,84,0.00,-RA,,0.00,0.0,WeatherDisplay:10.37,2013-01-25 13:16:00,
2013-01-25 07:21:00,8.1,4.3,29.82,West,277,4.6,4.6,84,0.00,-RA,,0.00,0.0,WeatherDisplay:10.37,2013-01-25 13:21:00,
2013-01-25 07:26:00,8.0,4.2,29.82,North,350,2.3,2.3,84,0.00,-RA,,0.00,0.0,WeatherDisplay:10.37,2013-01-25 13:26:00,
2013-01-25 07:31:00,8.0,4.2,29.82,WNW,286,5.8,5.8,84,0.00,-RA,,0.00,0.0,WeatherDisplay:10.37,2013-01-25 13:31:00,
2013-01-25 07:36:00,7.9,4.1,29.83,WNW,286,5.0,5.0,84,0.00,-RA,,0.00,0.0,WeatherDisplay:10.37,2013-01-25 13:36:00,
2013-01-25 07:41:00,7.8,4.0,29.83,WNW,292,4.6,4.6,84,0.00,-RA,,0.00,0.0,WeatherDisplay:10.37,2013-01-25 13:41:00,
2013-01-25 07:46:00,7.7,3.9,29.83,WNW,300,2.3,2.3,84,0.00,-RA,,0.00,0.0,WeatherDisplay:10.37,2013-01-25 13:46:00,
2013-01-25 07:51:00,7.6,3.8,29.84,West,267,5.8,5.8,84,0.00,-RA,,0.00,0.0,WeatherDisplay:10.37,2013-01-25 13:51:00,
2013-01-25 07:56:00,7.5,3.7,29.84,WNW,290,3.5,3.5,84,0.00,-RA,,0.00,0.0,WeatherDisplay:10.37,2013-01-25 13:56:00,
2013-01-25 08:01:00,7.5,3.7,29.85,WNW,291,3.5,3.5,84,0.00,-RA,,0.00,0.0,WeatherDisplay:10.37,2013-01-25 14:01:00,
2013-01-25 08:06:00,7.4,3.6,29.85,WNW,302,3.5,3.5,84,0.00,-RA,,0.00,7.0,WeatherDisplay:10.37,2013-01-25 14:06:00,
2013-01-25 08:11:00,7.3,3.5,29.85,West,264,5.8,5.8,84,0.00,-RA,,0.00,9.0,WeatherDisplay:10.37,2013-01-25 14:11:00,
2013-01-25 08:16:00,7.3,3.5,29.86,West,277,4.6,4.6,84,0.00,-RA,,0.00,11.0,WeatherDisplay:10.37,2013-01-25 14:16:00,
2013-01-25 08:21:00,7.2,3.4,29.86,WNW,300,8.1,8.1,84,0.00,-RA,,0.00,14.0,WeatherDisplay:10.37,2013-01-25 14:21:00,
2013-01-25 08:26:00,7.2,3.4,29.86,WNW,295,4.6,4.6,84,0.00,-RA,,0.00,16.0,WeatherDisplay:10.37,2013-01-25 14:26:00,
2013-01-25 08:31:00,7.2,3.4,29.87,NW,309,2.3,2.3,84,0.00,-RA,,0.00,19.0,WeatherDisplay:10.37,2013-01-25 14:31:00,
2013-01-25 08:36:00,7.1,3.3,29.87,NW,306,3.5,3.5,84,0.00,-RA,,0.00,19.0,WeatherDisplay:10.37,2013-01-25 14:36:00,
2013-01-25 08:41:00,7.1,3.3,29.87,NW,313,2.3,2.3,84,0.00,-RA,,0.00,18.0,WeatherDisplay:10.37,2013-01-25 14:41:00,
2013-01-25 08:46:00,7.2,3.4,29.87,West,281,3.5,3.5,84,0.00,-RA,,0.00,23.0,WeatherDisplay:10.37,2013-01-25 14:46:00,
2013-01-25 08:51:00,7.1,3.3,29.88,WNW,290,6.0,6.0,84,0.00,-RA,,0.00,35.0,WeatherDisplay:10.37,2013-01-25 14:51:00,
2013-01-25 08:56:00,7.1,3.3,29.89,WNW,302,4.0,4.0,84,0.00,-RA,,0.00,35.0,WeatherDisplay:10.37,2013-01-25 14:56:00,
2013-01-25 09:01:00,7.1,3.3,29.89,NW,315,8.1,8.1,84,0.00,-RA,,0.00,42.0,WeatherDisplay:10.37,2013-01-25 15:01:00,
2013-01-25 09:06:00,7.2,3.1,29.90,WNW,303,2.3,2.3,83,0.00,-RA,,0.00,42.0,WeatherDisplay:10.37,2013-01-25 15:06:00,
2013-01-25 09:11:00,7.2,3.1,29.90,WNW,292,5.8,5.8,83,0.00,-RA,,0.00,44.0,WeatherDisplay:10.37,2013-01-25 15:11:00,
2013-01-25 09:16:00,7.2,3.1,29.91,NW,322,5.8,5.8,83,0.00,-RA,,0.00,69.0,WeatherDisplay:10.37,2013-01-25 15:16:00,
2013-01-25 09:21:00,7.1,2.8,29.91,WNW,284,8.1,8.1,82,0.00,-RA,,0.00,79.0,WeatherDisplay:10.37,2013-01-25 15:21:00,
2013-01-25 09:26:00,7.0,2.7,29.91,North,360,4.0,4.0,82,0.00,-RA,,0.00,93.0,WeatherDisplay:10.37,2013-01-25 15:26:00,
2013-01-25 09:31:00,6.9,2.6,29.91,NNW,330,4.6,4.6,82,0.00,-RA,,0.00,107.0,WeatherDisplay:10.37,2013-01-25 15:31:00,
2013-01-25 09:36:00,6.9,2.3,29.92,NW,316,2.3,2.3,81,0.00,-RA,,0.00,100.0,WeatherDisplay:10.37,2013-01-25 15:36:00,
2013-01-25 09:41:00,6.9,2.3,29.92,WNW,294,5.8,5.8,81,0.00,-RA,,0.00,128.0,WeatherDisplay:10.37,2013-01-25 15:41:00,
2013-01-25 09:46:00,6.8,2.2,29.92,NW,323,4.6,4.6,81,0.00,-RA,,0.00,142.0,WeatherDisplay:10.37,2013-01-25 15:46:00,
2013-01-25 09:51:00,6.7,1.8,29.93,WSW,252,5.8,5.8,80,0.00,-RA,,0.00,125.0,WeatherDisplay:10.37,2013-01-25 15:51:00,
2013-01-25 09:56:00,6.6,1.7,29.94,NNW,340,9.2,9.2,80,0.00,-RA,,0.00,121.0,WeatherDisplay:10.37,2013-01-25 15:56:00,
2013-01-25 10:01:00,6.4,1.3,29.95,WNW,293,8.0,8.0,79,0.00,-RA,,0.00,156.0,WeatherDisplay:10.37,2013-01-25 16:01:00,
2013-01-25 10:06:00,6.3,1.2,29.95,WNW,295,6.9,6.9,79,0.00,-RA,,0.00,142.0,WeatherDisplay:10.37,2013-01-25 16:06:00,
2013-01-25 10:11:00,6.2,1.1,29.95,NW,317,3.5,3.5,79,0.00,-RA,,0.00,155.0,WeatherDisplay:10.37,2013-01-25 16:11:00,
2013-01-25 10:17:00,6.1,1.0,29.95,NW,314,4.6,4.6,79,0.00,-RA,,0.00,169.0,WeatherDisplay:10.37,2013-01-25 16:17:00,
2013-01-25 10:22:00,6.1,1.0,29.96,West,274,3.5,3.5,79,0.00,-RA,,0.00,171.0,WeatherDisplay:10.37,2013-01-25 16:22:00,
2013-01-25 10:27:00,6.2,1.1,29.97,WNW,303,3.5,3.5,79,0.00,-RA,,0.00,206.0,WeatherDisplay:10.37,2013-01-25 16:27:00,
2013-01-25 10:32:00,6.4,1.0,29.97,NNW,342,3.5,3.5,78,0.00,-RA,,0.00,183.0,WeatherDisplay:10.37,2013-01-25 16:32:00,
2013-01-25 10:37:00,6.7,1.0,29.97,NW,304,5.8,5.8,77,0.00,-RA,,0.00,408.0,WeatherDisplay:10.37,2013-01-25 16:37:00,
2013-01-25 10:42:00,7.0,1.3,29.98,North,350,6.0,6.0,77,0.00,-RA,,0.00,204.0,WeatherDisplay:10.37,2013-01-25 16:42:00,
2013-01-25 10:47:00,6.9,0.9,29.98,NW,313,6.9,6.9,76,0.00,-RA,,0.00,239.0,WeatherDisplay:10.37,2013-01-25 16:47:00,
2013-01-25 10:52:00,6.9,0.6,29.98,NW,310,5.0,5.0,75,0.00,-RA,,0.00,339.0,WeatherDisplay:10.37,2013-01-25 16:52:00,
2013-01-25 10:57:00,6.8,0.6,29.99,NW,318,3.5,3.5,75,0.00,-RA,,0.00,188.0,WeatherDisplay:10.37,2013-01-25 16:57:00,
2013-01-25 11:02:00,6.7,0.5,29.99,NNW,345,3.5,3.5,75,0.00,-RA,,0.00,204.0,WeatherDisplay:10.37,2013-01-25 17:02:00,
2013-01-25 11:07:00,6.8,0.6,30.00,NNW,337,4.6,4.6,75,0.00,-RA,,0.00,204.0,WeatherDisplay:10.37,2013-01-25 17:07:00,
2013-01-25 11:12:00,6.7,0.5,29.99,North,350,3.5,3.5,75,0.00,-RA,,0.00,204.0,WeatherDisplay:10.37,2013-01-25 17:12:00,
2013-01-25 11:17:00,6.7,0.2,30.00,WNW,302,4.0,4.0,74,0.00,-RA,,0.00,202.0,WeatherDisplay:10.37,2013-01-25 17:17:00,
2013-01-25 11:22:00,6.6,0.1,30.00,WNW,295,3.5,3.5,74,0.00,-RA,,0.00,199.0,WeatherDisplay:10.37,2013-01-25 17:22:00,
2013-01-25 11:27:00,6.4,-0.1,30.00,North,350,3.5,3.5,74,0.00,-RA,,0.00,216.0,WeatherDisplay:10.37,2013-01-25 17:27:00,
2013-01-25 11:32:00,6.3,-0.2,30.00,NNW,338,5.8,5.8,74,0.00,-RA,,0.00,267.0,WeatherDisplay:10.37,2013-01-25 17:32:00,
2013-01-25 11:37:00,6.2,-0.3,30.00,NNE,22,5.8,5.8,74,0.00,-RA,,0.00,197.0,WeatherDisplay:10.37,2013-01-25 17:37:00,
2013-01-25 11:42:00,6.1,-0.4,30.00,NW,323,4.6,4.6,74,0.00,-RA,,0.00,239.0,WeatherDisplay:10.37,2013-01-25 17:42:00,
2013-01-25 11:47:00,6.1,-0.1,30.00,NW,309,2.0,2.0,75,0.00,-RA,,0.00,269.0,WeatherDisplay:10.37,2013-01-25 17:47:00,
2013-01-25 11:52:00,6.1,-0.1,30.01,NNW,333,4.6,4.6,75,0.00,-RA,,0.00,281.0,WeatherDisplay:10.37,2013-01-25 17:52:00,
2013-01-25 11:57:00,6.4,-0.1,30.01,NW,308,4.6,4.6,74,0.00,-RA,,0.00,269.0,WeatherDisplay:10.37,2013-01-25 17:57:00,
2013-01-25 12:02:00,6.3,-0.2,30.01,NW,304,4.6,4.6,74,0.00,-RA,,0.00,253.0,WeatherDisplay:10.37,2013-01-25 18:02:00,
2013-01-25 12:07:00,6.2,-0.6,30.01,NW,309,3.5,3.5,73,0.00,-RA,,0.00,223.0,WeatherDisplay:10.37,2013-01-25 18:07:00,
2013-01-25 12:12:00,6.2,-0.3,30.02,NNW,338,3.5,3.5,74,0.00,-RA,,0.00,278.0,WeatherDisplay:10.37,2013-01-25 18:12:00,
2013-01-25 12:17:00,6.2,-0.3,30.02,WNW,302,5.8,5.8,74,0.00,-RA,,0.00,290.0,WeatherDisplay:10.37,2013-01-25 18:17:00,
2013-01-25 12:22:00,6.3,-0.2,30.02,WNW,286,5.8,5.8,74,0.00,-RA,,0.00,288.0,WeatherDisplay:10.37,2013-01-25 18:22:00,
2013-01-25 12:27:00,6.3,-0.5,30.03,NNW,333,3.5,3.5,73,0.00,-RA,,0.00,285.0,WeatherDisplay:10.37,2013-01-25 18:27:00,
2013-01-25 12:32:00,6.8,0.0,30.03,NNW,327,5.0,5.0,73,0.00,-RA,,0.00,274.0,WeatherDisplay:10.37,2013-01-25 18:32:00,
2013-01-25 12:37:00,7.0,0.2,30.03,NNW,344,3.5,3.5,73,0.00,-RA,,0.00,236.0,WeatherDisplay:10.37,2013-01-25 18:37:00,
2013-01-25 12:42:00,6.9,-0.2,30.03,NW,319,4.6,4.6,72,0.00,-RA,,0.00,218.0,WeatherDisplay:10.37,2013-01-25 18:42:00,
2013-01-25 12:47:00,6.8,-0.6,30.04,NNW,337,3.5,3.5,71,0.00,-RA,,0.00,211.0,WeatherDisplay:10.37,2013-01-25 18:47:00,
2013-01-25 12:52:00,6.5,-0.9,30.04,NNW,333,5.8,5.8,71,0.00,-RA,,0.00,234.0,WeatherDisplay:10.37,2013-01-25 18:52:00,
2013-01-25 12:57:00,6.4,-0.7,30.04,NW,314,5.0,5.0,72,0.00,-RA,,0.00,244.0,WeatherDisplay:10.37,2013-01-25 18:57:00,
2013-01-25 13:02:00,6.4,-0.7,30.05,NW,322,3.5,3.5,72,0.00,-RA,,0.00,223.0,WeatherDisplay:10.37,2013-01-25 19:02:00,
2013-01-25 13:07:00,6.4,-0.7,30.04,West,272,4.6,4.6,72,0.00,-RA,,0.00,251.0,WeatherDisplay:10.37,2013-01-25 19:07:00,
2013-01-25 13:12:00,6.3,-0.8,30.04,WNW,288,3.5,3.5,72,0.00,-RA,,0.00,250.0,WeatherDisplay:10.37,2013-01-25 19:12:00,
2013-01-25 13:17:00,6.2,-0.9,30.04,NW,318,6.9,6.9,72,0.00,-RA,,0.00,250.0,WeatherDisplay:10.37,2013-01-25 19:17:00,
2013-01-25 13:22:00,6.2,-0.9,30.04,NW,317,3.5,3.5,72,0.00,-RA,,0.00,216.0,WeatherDisplay:10.37,2013-01-25 19:22:00,
2013-01-25 13:27:00,6.3,-0.8,30.05,NW,317,4.6,4.6,72,0.00,-RA,,0.00,236.0,WeatherDisplay:10.37,2013-01-25 19:27:00,
2013-01-25 13:32:00,6.4,-0.7,30.05,West,262,3.5,3.5,72,0.00,-RA,,0.00,213.0,WeatherDisplay:10.37,2013-01-25 19:32:00,
2013-01-25 13:37:00,6.5,-0.6,30.06,West,277,3.5,3.5,72,0.00,-RA,,0.00,209.0,WeatherDisplay:10.37,2013-01-25 19:37:00,
2013-01-25 13:42:00,6.5,-0.6,30.05,West,275,3.5,3.5,72,0.00,-RA,,0.00,202.0,WeatherDisplay:10.37,2013-01-25 19:42:00,
2013-01-25 13:47:00,6.5,-0.6,30.06,WNW,286,3.5,3.5,72,0.00,-RA,,0.00,216.0,WeatherDisplay:10.37,2013-01-25 19:47:00,
2013-01-25 13:52:00,6.6,-0.5,30.06,North,360,3.0,3.0,72,0.00,-RA,,0.00,206.0,WeatherDisplay:10.37,2013-01-25 19:52:00,
2013-01-25 13:57:00,6.5,-0.6,30.06,NNW,330,3.5,3.5,72,0.00,-RA,,0.00,174.0,WeatherDisplay:10.37,2013-01-25 19:57:00,
2013-01-25 14:02:00,6.4,-1.0,30.06,NW,309,3.0,3.0,71,0.00,-RA,,0.00,213.0,WeatherDisplay:10.37,2013-01-25 20:02:00,
2013-01-25 14:07:00,6.5,-0.6,30.06,West,273,6.0,6.0,72,0.00,-RA,,0.00,183.0,WeatherDisplay:10.37,2013-01-25 20:07:00,
2013-01-25 14:13:00,6.5,-0.9,30.06,West,276,4.6,4.6,71,0.00,-RA,,0.00,169.0,WeatherDisplay:10.37,2013-01-25 20:13:00,
2013-01-25 14:18:00,6.5,-0.9,30.06,NNW,336,3.5,3.5,71,0.00,-RA,,0.00,188.0,WeatherDisplay:10.37,2013-01-25 20:18:00,
2013-01-25 14:23:00,6.5,-0.9,30.07,NW,309,3.5,3.5,71,0.00,-RA,,0.00,139.0,WeatherDisplay:10.37,2013-01-25 20:23:00,
2013-01-25 14:28:00,6.3,-1.4,30.06,NW,311,2.0,2.0,70,0.00,-RA,,0.00,185.0,WeatherDisplay:10.37,2013-01-25 20:28:00,
2013-01-25 14:33:00,6.2,-1.5,30.07,North,349,3.5,3.5,70,0.00,-RA,,0.00,237.0,WeatherDisplay:10.37,2013-01-25 20:33:00,
2013-01-25 14:38:00,6.2,-1.2,30.07,WNW,299,4.0,4.0,71,0.00,-RA,,0.00,144.0,WeatherDisplay:10.37,2013-01-25 20:38:00,
2013-01-25 14:43:00,6.2,-1.2,30.08,WNW,288,3.0,3.0,71,0.00,-RA,,0.00,100.0,WeatherDisplay:10.37,2013-01-25 20:43:00,
2013-01-25 14:48:00,6.1,-1.6,30.08,NW,308,3.5,3.5,70,0.00,-RA,,0.00,104.0,WeatherDisplay:10.37,2013-01-25 20:48:00,
2013-01-25 14:53:00,5.9,-1.8,30.08,NW,309,3.5,3.5,70,0.00,-RA,,0.00,116.0,WeatherDisplay:10.37,2013-01-25 20:53:00,
2013-01-25 14:58:00,5.7,-2.0,30.08,WNW,302,4.6,4.6,70,0.00,-RA,,0.00,132.0,WeatherDisplay:10.37,2013-01-25 20:58:00,
2013-01-25 15:03:00,5.5,-2.5,30.08,WNW,286,3.5,3.5,69,0.00,-RA,,0.00,56.0,WeatherDisplay:10.37,2013-01-25 21:03:00,
2013-01-25 15:08:00,5.3,-2.7,30.08,NW,325,3.5,3.5,69,0.00,-RA,,0.00,56.0,WeatherDisplay:10.37,2013-01-25 21:08:00,
2013-01-25 15:13:00,5.0,-3.0,30.09,WNW,302,3.5,3.5,69,0.00,-RA,,0.00,63.0,WeatherDisplay:10.37,2013-01-25 21:13:00,
2013-01-25 15:18:00,4.8,-2.8,30.09,NNW,329,4.6,4.6,70,0.00,-RA,,0.00,178.0,WeatherDisplay:10.37,2013-01-25 21:18:00,
2013-01-25 15:23:00,4.7,-2.9,30.09,NW,319,3.5,3.5,70,0.00,-RA,,0.00,141.0,WeatherDisplay:10.37,2013-01-25 21:23:00,
2013-01-25 15:28:00,4.9,-2.5,30.10,WNW,292,1.1,0.0,71,0.00,-RA,,0.00,200.0,WeatherDisplay:10.37,2013-01-25 21:28:00,
2013-01-25 15:33:00,5.2,-1.9,30.09,WNW,284,3.5,3.5,72,0.00,-RA,,0.00,190.0,WeatherDisplay:10.37,2013-01-25 21:33:00,
2013-01-25 15:38:00,5.6,-1.8,30.10,West,277,3.5,3.5,71,0.00,-RA,,0.00,183.0,WeatherDisplay:10.37,2013-01-25 21:38:00,
2013-01-25 15:43:00,5.9,-1.8,30.11,WNW,284,3.5,3.5,70,0.00,-RA,,0.00,163.0,WeatherDisplay:10.37,2013-01-25 21:43:00,
2013-01-25 15:48:00,6.1,-1.9,30.11,West,278,3.5,3.5,69,0.00,-RA,,0.00,144.0,WeatherDisplay:10.37,2013-01-25 21:48:00,
2013-01-25 15:53:00,6.2,-1.8,30.11,West,272,3.5,3.5,69,0.00,-RA,,0.00,130.0,WeatherDisplay:10.37,2013-01-25 21:53:00,
2013-01-25 15:58:00,6.2,-2.1,30.11,WNW,299,3.0,3.0,68,0.00,-RA,,0.00,114.0,WeatherDisplay:10.37,2013-01-25 21:58:00,
2013-01-25 16:03:00,6.1,-2.2,30.12,WNW,299,2.0,2.0,68,0.00,-RA,,0.00,100.0,WeatherDisplay:10.37,2013-01-25 22:03:00,
2013-01-25 16:08:00,6.1,-2.2,30.12,WNW,299,3.5,3.5,68,0.00,-RA,,0.00,88.0,WeatherDisplay:10.37,2013-01-25 22:08:00,
2013-01-25 16:13:00,6.1,-2.5,30.11,WNW,300,0.0,0.0,67,0.00,-RA,,0.00,76.0,WeatherDisplay:10.37,2013-01-25 22:13:00,
2013-01-25 16:18:00,6.0,-2.6,30.11,West,281,3.5,3.5,67,0.00,-RA,,0.00,65.0,WeatherDisplay:10.37,2013-01-25 22:18:00,
2013-01-25 16:23:00,5.7,-2.9,30.12,West,277,3.5,3.5,67,0.00,-RA,,0.00,53.0,WeatherDisplay:10.37,2013-01-25 22:23:00,
2013-01-25 16:28:00,5.4,-3.2,30.12,West,276,1.1,0.0,67,0.00,-RA,,0.00,42.0,WeatherDisplay:10.37,2013-01-25 22:28:00,
2013-01-25 16:33:00,5.1,-3.8,30.13,West,275,2.3,2.3,66,0.00,-RA,,0.00,19.0,WeatherDisplay:10.37,2013-01-25 22:33:00,
2013-01-25 16:38:00,4.7,-4.2,30.13,West,275,2.3,2.3,66,0.00,-RA,,0.00,18.0,WeatherDisplay:10.37,2013-01-25 22:38:00,
2013-01-25 16:43:00,4.2,-4.7,30.14,West,276,1.0,1.0,66,0.00,-RA,,0.00,16.0,WeatherDisplay:10.37,2013-01-25 22:43:00,
2013-01-25 16:48:00,3.7,-4.8,30.14,West,276,0.0,0.0,67,0.00,-RA,,0.00,16.0,WeatherDisplay:10.37,2013-01-25 22:48:00,
2013-01-25 16:53:00,3.2,-5.3,30.14,West,276,0.0,0.0,67,0.00,-RA,,0.00,14.0,WeatherDisplay:10.37,2013-01-25 22:53:00,
2013-01-25 16:58:00,2.8,-5.7,30.13,West,276,1.1,1.1,67,0.00,-RA,,0.00,11.0,WeatherDisplay:10.37,2013-01-25 22:58:00,
2013-01-25 17:03:00,2.3,-5.9,30.14,West,276,3.5,0.0,68,0.00,-RA,,0.00,9.0,WeatherDisplay:10.37,2013-01-25 23:03:00,
2013-01-25 17:08:00,1.9,-6.2,30.14,West,276,0.0,0.1,68,0.00,-RA,,0.00,7.0,WeatherDisplay:10.37,2013-01-25 23:08:00,
2013-01-25 17:13:00,1.5,-6.6,30.14,West,276,0.0,0.0,68,0.00,-RA,,0.00,5.0,WeatherDisplay:10.37,2013-01-25 23:13:00,
2013-01-25 17:18:00,1.1,-6.7,30.15,West,276,0.0,0.0,69,0.00,-RA,,0.00,0.0,WeatherDisplay:10.37,2013-01-25 23:18:00,
2013-01-25 17:23:00,0.7,-7.1,30.14,West,276,0.0,0.0,69,0.00,-RA,,0.00,0.0,WeatherDisplay:10.37,2013-01-25 23:23:00,
2013-01-25 17:28:00,0.3,-7.5,30.15,West,276,0.0,0.0,69,0.00,-RA,,0.00,0.0,WeatherDisplay:10.37,2013-01-25 23:28:00,
2013-01-25 17:33:00,0.0,-7.8,30.15,West,276,0.0,0.0,69,0.00,-RA,,0.00,0.0,WeatherDisplay:10.37,2013-01-25 23:33:00,
2013-01-25 17:38:00,-0.4,-8.2,30.15,West,276,0.0,0.0,69,0.00,-RA,,0.00,0.0,WeatherDisplay:10.37,2013-01-25 23:38:00,
2013-01-25 17:43:00,-0.8,-8.5,30.16,West,276,0.0,0.0,69,0.00,-RA,,0.00,0.0,WeatherDisplay:10.37,2013-01-25 23:43:00,
2013-01-25 17:48:00,-1.2,-8.6,30.16,West,276,0.0,0.0,70,0.00,-RA,,0.00,0.0,WeatherDisplay:10.37,2013-01-25 23:48:00,
2013-01-25 17:53:00,-1.6,-9.0,30.16,West,276,0.0,0.0,70,0.00,-RA,,0.00,0.0,WeatherDisplay:10.37,2013-01-25 23:53:00,
2013-01-25 17:58:00,-1.9,-9.3,30.16,West,276,0.0,0.0,70,0.00,-RA,,0.00,0.0,WeatherDisplay:10.37,2013-01-25 23:58:00,
2013-01-25 18:03:00,-2.3,-9.7,30.16,West,276,0.0,0.0,70,0.00,-RA,,0.00,0.0,WeatherDisplay:10.37,2013-01-26 00:03:00,
2013-01-25 18:08:00,-2.6,-10.0,30.16,West,276,0.0,0.0,70,0.00,-RA,,0.00,0.0,WeatherDisplay:10.37,2013-01-26 00:08:00,
2013-01-25 18:13:00,-3.0,-10.4,30.17,West,276,0.0,0.0,70,0.00,-RA,,0.00,0.0,WeatherDisplay:10.37,2013-01-26 00:13:00,
2013-01-25 18:18:00,-3.4,-10.7,30.16,West,276,0.0,0.0,70,0.00,-RA,,0.00,0.0,WeatherDisplay:10.37,2013-01-26 00:18:00,
2013-01-25 18:23:00,-3.8,-11.1,30.17,West,276,0.0,0.0,70,0.00,-RA,,0.00,0.0,WeatherDisplay:10.37,2013-01-26 00:23:00,
2013-01-25 18:28:00,-4.1,-11.4,30.17,West,276,0.0,0.0,70,0.00,-RA,,0.00,0.0,WeatherDisplay:10.37,2013-01-26 00:28:00,
2013-01-25 18:33:00,-4.5,-11.5,30.18,West,276,0.0,0.0,71,0.00,-RA,,0.00,0.0,WeatherDisplay:10.37,2013-01-26 00:33:00,
2013-01-25 18:38:00,-4.8,-11.8,30.18,West,276,0.0,0.0,71,0.00,-RA,,0.00,0.0,WeatherDisplay:10.37,2013-01-26 00:38:00,
2013-01-25 18:43:00,-5.1,-11.8,30.18,West,276,0.0,0.0,72,0.00,-RA,,0.00,0.0,WeatherDisplay:10.37,2013-01-26 00:43:00,
2013-01-25 18:48:00,-5.4,-12.1,30.18,West,276,0.0,0.0,72,0.00,-RA,,0.00,0.0,WeatherDisplay:10.37,2013-01-26 00:48:00,
2013-01-25 18:53:00,-5.6,-12.0,30.18,West,276,0.0,0.0,73,0.00,-RA,,0.00,0.0,WeatherDisplay:10.37,2013-01-26 00:53:00,
2013-01-25 18:58:00,-5.8,-12.2,30.18,West,276,0.0,0.0,73,0.00,-RA,,0.00,0.0,WeatherDisplay:10.37,2013-01-26 00:58:00,
2013-01-25 19:03:00,-6.0,-12.1,30.19,West,276,0.0,0.0,74,0.00,-RA,,0.00,0.0,WeatherDisplay:10.37,2013-01-26 01:03:00,
2013-01-25 19:08:00,-6.2,-12.3,30.19,West,276,0.0,0.0,74,0.00,-RA,,0.00,0.0,WeatherDisplay:10.37,2013-01-26 01:08:00,
2013-01-25 19:13:00,-6.3,-12.4,30.19,West,276,0.0,0.0,74,0.00,-RA,,0.00,0.0,WeatherDisplay:10.37,2013-01-26 01:13:00,
2013-01-25 19:18:00,-6.4,-12.3,30.20,West,276,0.0,0.0,75,0.00,-RA,,0.00,0.0,WeatherDisplay:10.37,2013-01-26 01:18:00,
2013-01-25 19:23:00,-6.5,-12.4,30.20,West,276,0.0,0.0,75,0.00,-RA,,0.00,0.0,WeatherDisplay:10.37,2013-01-26 01:23:00,
2013-01-25 19:28:00,-6.6,-12.5,30.19,West,276,0.0,0.0,75,0.00,-RA,,0.00,0.0,WeatherDisplay:10.37,2013-01-26 01:28:00,
2013-01-25 19:33:00,-6.7,-12.3,30.19,West,276,0.0,0.0,76,0.00,-RA,,0.00,0.0,WeatherDisplay:10.37,2013-01-26 01:33:00,
2013-01-25 19:38:00,-6.9,-12.5,30.19,West,276,1.1,1.1,76,0.00,-RA,,0.00,0.0,WeatherDisplay:10.37,2013-01-26 01:38:00,
2013-01-25 19:43:00,-7.0,-12.6,30.18,West,276,1.1,0.0,76,0.00,-RA,,0.00,0.0,WeatherDisplay:10.37,2013-01-26 01:43:00,
2013-01-25 19:48:00,-7.1,-12.7,30.18,West,276,0.0,0.0,76,0.00,-RA,,0.00,0.0,WeatherDisplay:10.37,2013-01-26 01:48:00,
2013-01-25 19:53:00,-7.2,-12.8,30.18,West,276,0.0,0.0,76,0.00,-RA,,0.00,0.0,WeatherDisplay:10.37,2013-01-26 01:53:00,
2013-01-25 19:58:00,-7.2,-12.8,30.18,West,276,0.0,0.0,76,0.00,-RA,,0.00,0.0,WeatherDisplay:10.37,2013-01-26 01:58:00,
2013-01-25 20:03:00,-7.3,-12.9,30.18,West,276,0.0,0.0,76,0.00,-RA,,0.00,0.0,WeatherDisplay:10.37,2013-01-26 02:03:00,
2013-01-25 20:08:00,-7.5,-13.1,30.18,West,276,0.0,0.0,76,0.00,-RA,,0.00,0.0,WeatherDisplay:10.37,2013-01-26 02:08:00,
2013-01-25 20:14:00,-7.6,-13.2,30.18,West,276,0.0,0.0,76,0.00,-RA,,0.00,0.0,WeatherDisplay:10.37,2013-01-26 02:14:00,
2013-01-25 20:19:00,-7.8,-13.4,30.18,West,276,0.0,0.0,76,0.00,-RA,,0.00,0.0,WeatherDisplay:10.37,2013-01-26 02:19:00,
2013-01-25 20:24:00,-8.0,-13.5,30.18,West,276,0.0,0.0,76,0.00,-RA,,0.00,0.0,WeatherDisplay:10.37,2013-01-26 02:24:00,
2013-01-25 20:29:00,-8.2,-14.0,30.18,West,276,0.0,0.0,75,0.00,-RA,,0.00,0.0,WeatherDisplay:10.37,2013-01-26 02:29:00,
2013-01-25 20:34:00,-8.4,-14.2,30.18,West,276,0.0,0.0,75,0.00,-RA,,0.00,0.0,WeatherDisplay:10.37,2013-01-26 02:34:00,
2013-01-25 20:39:00,-8.7,-14.5,30.18,West,276,0.0,0.0,75,0.00,-RA,,0.00,0.0,WeatherDisplay:10.37,2013-01-26 02:39:00,
2013-01-25 20:44:00,-8.9,-14.7,30.19,West,276,0.0,0.0,75,0.00,-RA,,0.00,0.0,WeatherDisplay:10.37,2013-01-26 02:44:00,
2013-01-25 20:49:00,-9.1,-14.9,30.19,West,276,0.0,0.0,75,0.00,-RA,,0.00,0.0,WeatherDisplay:10.37,2013-01-26 02:49:00,
2013-01-25 20:54:00,-9.3,-15.1,30.19,West,276,0.0,0.0,75,0.00,-RA,,0.00,0.0,WeatherDisplay:10.37,2013-01-26 02:54:00,
2013-01-25 20:59:00,-9.6,-15.4,30.19,West,276,0.0,0.0,75,0.00,-RA,,0.00,0.0,WeatherDisplay:10.37,2013-01-26 02:59:00,
2013-01-25 21:04:00,-9.8,-15.6,30.19,West,276,0.0,0.0,75,0.00,-RA,,0.00,0.0,WeatherDisplay:10.37,2013-01-26 03:04:00,
2013-01-25 21:09:00,-9.9,-15.7,30.19,West,276,0.0,0.0,75,0.00,-RA,,0.00,0.0,WeatherDisplay:10.37,2013-01-26 03:09:00,
2013-01-25 21:14:00,-10.2,-15.7,30.19,West,276,0.0,0.0,76,0.00,-RA,,0.00,0.0,WeatherDisplay:10.37,2013-01-26 03:14:00,
2013-01-25 21:19:00,-10.3,-15.8,30.19,West,276,0.0,0.0,76,0.00,-RA,,0.00,0.0,WeatherDisplay:10.37,2013-01-26 03:19:00,
2013-01-25 21:24:00,-10.4,-15.9,30.19,West,276,0.0,0.0,76,0.00,-RA,,0.00,0.0,WeatherDisplay:10.37,2013-01-26 03:24:00,
2013-01-25 21:29:00,-10.6,-16.1,30.20,West,276,0.0,0.0,76,0.00,-RA,,0.00,0.0,WeatherDisplay:10.37,2013-01-26 03:29:00,
2013-01-25 21:34:00,-10.7,-16.2,30.20,West,276,0.0,0.0,76,0.00,-RA,,0.00,0.0,WeatherDisplay:10.37,2013-01-26 03:34:00,
2013-01-25 21:39:00,-10.9,-16.4,30.21,West,276,0.0,0.0,76,0.00,-RA,,0.00,0.0,WeatherDisplay:10.37,2013-01-26 03:39:00,
2013-01-25 21:44:00,-11.0,-16.5,30.21,West,276,0.0,0.0,76,0.00,-RA,,0.00,0.0,WeatherDisplay:10.37,2013-01-26 03:44:00,
2013-01-25 21:49:00,-11.1,-16.6,30.22,West,276,0.0,0.0,76,0.00,-RA,,0.00,0.0,WeatherDisplay:10.37,2013-01-26 03:49:00,
2013-01-25 21:54:00,-11.2,-16.7,30.22,West,276,0.0,0.0,76,0.00,-RA,,0.00,0.0,WeatherDisplay:10.37,2013-01-26 03:54:00,
2013-01-25 21:59:00,-11.3,-16.8,30.22,West,276,0.0,0.0,76,0.00,-RA,,0.00,0.0,WeatherDisplay:10.37,2013-01-26 03:59:00,
2013-01-25 22:04:00,-11.5,-17.0,30.21,West,276,0.0,0.0,76,0.00,-RA,,0.00,0.0,WeatherDisplay:10.37,2013-01-26 04:04:00,
2013-01-25 22:09:00,-11.5,-16.7,30.22,West,276,0.0,0.0,77,0.00,-RA,,0.00,0.0,WeatherDisplay:10.37,2013-01-26 04:09:00,
2013-01-25 22:14:00,-11.6,-16.8,30.21,West,276,0.0,0.0,77,0.00,-RA,,0.00,0.0,WeatherDisplay:10.37,2013-01-26 04:14:00,
2013-01-25 22:19:00,-11.7,-16.9,30.22,West,276,0.0,0.0,77,0.00,-RA,,0.00,0.0,WeatherDisplay:10.37,2013-01-26 04:19:00,
2013-01-25 22:24:00,-11.8,-17.0,30.21,West,276,0.0,0.0,77,0.00,-RA,,0.00,0.0,WeatherDisplay:10.37,2013-01-26 04:24:00,
2013-01-25 22:29:00,-11.8,-17.0,30.21,West,276,0.0,0.0,77,0.00,-RA,,0.00,0.0,WeatherDisplay:10.37,2013-01-26 04:29:00,
2013-01-25 22:34:00,-11.9,-17.1,30.22,West,276,0.0,0.0,77,0.00,-RA,,0.00,0.0,WeatherDisplay:10.37,2013-01-26 04:34:00,
2013-01-25 22:39:00,-12.0,-17.2,30.22,West,276,0.0,0.0,77,0.00,-RA,,0.00,0.0,WeatherDisplay:10.37,2013-01-26 04:39:00,
2013-01-25 22:44:00,-12.1,-17.3,30.23,West,276,0.0,0.0,77,0.00,-RA,,0.00,0.0,WeatherDisplay:10.37,2013-01-26 04:44:00,
2013-01-25 22:49:00,-12.2,-17.4,30.23,West,276,0.0,0.0,77,0.00,-RA,,0.00,0.0,WeatherDisplay:10.37,2013-01-26 04:49:00,
2013-01-25 22:54:00,-12.3,-17.5,30.24,West,276,0.0,0.0,77,0.00,-RA,,0.00,0.0,WeatherDisplay:10.37,2013-01-26 04:54:00,
2013-01-25 22:59:00,-12.5,-17.7,30.24,West,276,0.0,0.0,77,0.00,-RA,,0.00,0.0,WeatherDisplay:10.37,2013-01-26 04:59:00,
2013-01-25 23:00:00,-12.5,-17.7,30.24,West,276,0.0,0.0,77,0.00,-RA,,0.00,0.0,WeatherDisplay:10.37,2013-01-26 05:00:00,
2013-01-25 23:01:00,-12.5,-17.7,30.24,West,276,0.0,0.0,77,0.00,-RA,,0.00,0.0,WeatherDisplay:10.37,2013-01-26 05:01:00,
2013-01-25 23:07:00,-12.6,-17.8,30.25,West,276,0.0,0.0,77,0.00,-RA,,0.00,0.0,WeatherDisplay:10.37,2013-01-26 05:07:00,
2013-01-25 23:12:00,-12.7,-17.9,30.25,West,276,0.0,0.0,77,0.00,-RA,,0.00,0.0,WeatherDisplay:10.37,2013-01-26 05:12:00,
2013-01-25 23:17:00,-12.8,-18.0,30.25,West,276,0.0,0.0,77,0.00,-RA,,0.00,0.0,WeatherDisplay:10.37,2013-01-26 05:17:00,
2013-01-25 23:22:00,-12.8,-18.0,30.25,West,276,0.0,0.0,77,0.00,-RA,,0.00,0.0,WeatherDisplay:10.37,2013-01-26 05:22:00,
2013-01-25 23:27:00,-12.8,-18.0,30.25,West,276,0.0,0.0,77,0.00,-RA,,0.00,0.0,WeatherDisplay:10.37,2013-01-26 05:27:00,
2013-01-25 23:32:00,-12.8,-17.7,30.25,West,276,0.0,0.0,78,0.00,-RA,,0.00,0.0,WeatherDisplay:10.37,2013-01-26 05:32:00,
2013-01-25 23:37:00,-12.8,-17.7,30.24,West,276,0.0,0.0,78,0.00,-RA,,0.00,0.0,WeatherDisplay:10.37,2013-01-26 05:37:00,
2013-01-25 23:42:00,-12.9,-17.8,30.24,West,276,0.0,0.0,78,0.00,-RA,,0.00,0.0,WeatherDisplay:10.37,2013-01-26 05:42:00,
2013-01-25 23:47:00,-13.0,-17.9,30.25,West,276,0.0,0.0,78,0.00,-RA,,0.00,0.0,WeatherDisplay:10.37,2013-01-26 05:47:00,
2013-01-25 23:52:00,-13.0,-17.9,30.25,West,276,0.0,0.0,78,0.00,-RA,,0.00,0.0,WeatherDisplay:10.37,2013-01-26 05:52:00,
2013-01-25 23:57:00,-13.1,-18.0,30.25,West,276,0.0,0.0,78,0.00,-RA,,0.00,0.0,WeatherDisplay:10.37,2013-01-26 05:57:00,